Orange City, IA

7:20 AM CST on December 26, 2014 (GMT -0600)
IADOT Alton (IA10) | Change Station
CLOSE
Current Station
Personal Weather Station
Location: Orange City, IA
Elevation: 1410 ft
Nearby Weather Stations
Active Advisory: Winter Weather Advisory

Elev 1410 ft 43.00 °N, 96.08 °W | Updated 58 minutes ago

Overcast
Overcast
29 °F
Feels Like 17 °F
N
18
Wind Variable Wind from North
Gusts 22.0 mph

Today
High -- | Low -- °F
--% Chance of Precip.
Yesterday
High -- | Low -- °F
Precip. -- in
7:54 AM 4:55 PM
Waxing Crescent, 26% visible
Pressure 29.95 in
Visibility 10.0 miles
Clouds Overcast 700 ft
Windchill 17 °F
Dew Point 28 °F
Humidity 94%
Rainfall -999.00 in
Snow Depth Not available.
UV 0 out of 12
Pollen .10 out of 12
Air Quality Not available.
Flu Activity Not available.
METAR KORC 261315Z AUTO 35013G17KT 10SM OVC007 M01/M03 A2995 RMK AO2

More Conditions Fewer Conditions

Pressure 29.95 in
Visibility 10.0 miles
Clouds Overcast 700 ft
Windchill 17 °F
Dew Point 28 °F
Humidity 94%
Rainfall -999.00 in
Snow Depth Not available.
UV 0 out of 12
Pollen .10 out of 12
Air Quality Not available.
Flu Activity Not available.
METAR KORC 261315Z AUTO 35013G17KT 10SM OVC007 M01/M03 A2995 RMK AO2

More Conditions Fewer Conditions

10-Day Weather Forecast

Almanac

Astronomy

Dec. 26, 2014 Rise Set
Actual Time
Civil Twilight
Nautical Twilight
Astronomical Twilight
Moon
Length of Visible Light
Length of Day
Tomorrow will be .
, % of the Moon is Illuminated

Today's Extremes

State Highs State Lows

Community

WunderPhotos

Upload Photos

1,780,592 photos uploaded!

WunderBlogs® & News

Nearby

Air Quality

  Air Quality AQ Index Pollutant
Not available.

Snow Depth

Station Depth Elevation

Earthquake Activity

City Distance Mag. Time & Date
Minimum magnitude displayed is 2.5.

Coastal Water Temperatures

Place Temperature

Nearby Weather Stations